sensor_id;sensor_type;location;lat;lon;timestamp;P1;durP1;ratioP1;P2;durP2;ratioP2
17991;SDS011;9121;50.926;5.340;2023-04-15T00:02:14;11.47;;;4.73;;
17991;SDS011;9121;50.926;5.340;2023-04-15T00:04:42;12.50;;;4.93;;
17991;SDS011;9121;50.926;5.340;2023-04-15T00:07:09;13.40;;;4.63;;
17991;SDS011;9121;50.926;5.340;2023-04-15T00:09:38;7.07;;;4.47;;
17991;SDS011;9121;50.926;5.340;2023-04-15T00:12:05;15.90;;;5.53;;
17991;SDS011;9121;50.926;5.340;2023-04-15T00:14:32;10.73;;;4.40;;
17991;SDS011;9121;50.926;5.340;2023-04-15T00:17:00;7.17;;;4.03;;
17991;SDS011;9121;50.926;5.340;2023-04-15T00:19:27;9.70;;;4.53;;
17991;SDS011;9121;50.926;5.340;2023-04-15T00:21:54;11.43;;;5.00;;
17991;SDS011;9121;50.926;5.340;2023-04-15T00:24:21;12.90;;;4.13;;
17991;SDS011;9121;50.926;5.340;2023-04-15T00:26:50;12.83;;;4.40;;
17991;SDS011;9121;50.926;5.340;2023-04-15T00:29:17;12.37;;;4.20;;
17991;SDS011;9121;50.926;5.340;2023-04-15T00:31:44;7.33;;;3.97;;
17991;SDS011;9121;50.926;5.340;2023-04-15T00:34:11;8.83;;;3.83;;
17991;SDS011;9121;50.926;5.340;2023-04-15T00:36:38;10.03;;;4.67;;
17991;SDS011;9121;50.926;5.340;2023-04-15T00:39:05;13.30;;;4.53;;
17991;SDS011;9121;50.926;5.340;2023-04-15T00:41:32;9.00;;;4.30;;
17991;SDS011;9121;50.926;5.340;2023-04-15T00:44:00;8.93;;;4.33;;
17991;SDS011;9121;50.926;5.340;2023-04-15T00:46:27;9.57;;;4.30;;
17991;SDS011;9121;50.926;5.340;2023-04-15T00:48:56;10.10;;;4.67;;
17991;SDS011;9121;50.926;5.340;2023-04-15T00:51:23;9.70;;;4.60;;
17991;SDS011;9121;50.926;5.340;2023-04-15T00:53:50;10.97;;;4.33;;
17991;SDS011;9121;50.926;5.340;2023-04-15T00:56:17;10.60;;;5.07;;
17991;SDS011;9121;50.926;5.340;2023-04-15T00:58:48;11.73;;;4.83;;
17991;SDS011;9121;50.926;5.340;2023-04-15T01:01:17;12.97;;;5.20;;
17991;SDS011;9121;50.926;5.340;2023-04-15T01:03:47;11.70;;;4.80;;
17991;SDS011;9121;50.926;5.340;2023-04-15T01:06:15;12.23;;;5.30;;
17991;SDS011;9121;50.926;5.340;2023-04-15T01:08:42;9.33;;;4.67;;
17991;SDS011;9121;50.926;5.340;2023-04-15T01:11:11;10.87;;;4.87;;
17991;SDS011;9121;50.926;5.340;2023-04-15T01:13:38;11.87;;;4.73;;
17991;SDS011;9121;50.926;5.340;2023-04-15T01:16:06;12.57;;;4.90;;
17991;SDS011;9121;50.926;5.340;2023-04-15T01:18:35;10.50;;;4.97;;
17991;SDS011;9121;50.926;5.340;2023-04-15T01:21:03;11.17;;;4.83;;
17991;SDS011;9121;50.926;5.340;2023-04-15T01:23:31;8.87;;;4.53;;
17991;SDS011;9121;50.926;5.340;2023-04-15T01:26:00;13.33;;;4.87;;
17991;SDS011;9121;50.926;5.340;2023-04-15T01:28:27;7.77;;;4.03;;
17991;SDS011;9121;50.926;5.340;2023-04-15T01:31:04;6.67;;;4.23;;
17991;SDS011;9121;50.926;5.340;2023-04-15T01:33:34;12.67;;;4.53;;
17991;SDS011;9121;50.926;5.340;2023-04-15T01:36:02;8.80;;;4.23;;
17991;SDS011;9121;50.926;5.340;2023-04-15T01:38:30;13.33;;;4.63;;
17991;SDS011;9121;50.926;5.340;2023-04-15T01:40:57;13.23;;;5.10;;
17991;SDS011;9121;50.926;5.340;2023-04-15T01:43:26;9.87;;;4.33;;
17991;SDS011;9121;50.926;5.340;2023-04-15T01:45:53;9.90;;;4.60;;
17991;SDS011;9121;50.926;5.340;2023-04-15T01:48:20;14.27;;;4.97;;
17991;SDS011;9121;50.926;5.340;2023-04-15T01:50:48;10.63;;;5.07;;
17991;SDS011;9121;50.926;5.340;2023-04-15T01:53:16;9.83;;;4.60;;
17991;SDS011;9121;50.926;5.340;2023-04-15T01:55:42;11.47;;;4.83;;
17991;SDS011;9121;50.926;5.340;2023-04-15T01:58:11;11.83;;;5.17;;
17991;SDS011;9121;50.926;5.340;2023-04-15T02:00:38;12.67;;;5.33;;
17991;SDS011;9121;50.926;5.340;2023-04-15T02:03:05;16.00;;;5.80;;
17991;SDS011;9121;50.926;5.340;2023-04-15T02:05:32;9.87;;;5.07;;
17991;SDS011;9121;50.926;5.340;2023-04-15T02:07:59;9.80;;;4.97;;
17991;SDS011;9121;50.926;5.340;2023-04-15T02:10:26;10.13;;;5.13;;
17991;SDS011;9121;50.926;5.340;2023-04-15T02:12:53;10.10;;;4.77;;
17991;SDS011;9121;50.926;5.340;2023-04-15T02:15:21;15.40;;;5.33;;
17991;SDS011;9121;50.926;5.340;2023-04-15T02:17:48;10.70;;;5.50;;
17991;SDS011;9121;50.926;5.340;2023-04-15T02:20:17;11.77;;;5.00;;
17991;SDS011;9121;50.926;5.340;2023-04-15T02:22:45;15.13;;;4.83;;
17991;SDS011;9121;50.926;5.340;2023-04-15T02:25:12;6.60;;;4.67;;
17991;SDS011;9121;50.926;5.340;2023-04-15T02:27:40;13.07;;;5.10;;
17991;SDS011;9121;50.926;5.340;2023-04-15T02:30:08;14.10;;;4.80;;
17991;SDS011;9121;50.926;5.340;2023-04-15T02:32:36;9.73;;;4.77;;
17991;SDS011;9121;50.926;5.340;2023-04-15T02:35:04;12.17;;;5.00;;
17991;SDS011;9121;50.926;5.340;2023-04-15T02:37:32;13.27;;;4.37;;
17991;SDS011;9121;50.926;5.340;2023-04-15T02:40:05;9.80;;;4.70;;
17991;SDS011;9121;50.926;5.340;2023-04-15T02:42:33;10.10;;;4.50;;
17991;SDS011;9121;50.926;5.340;2023-04-15T02:45:00;8.30;;;4.83;;
17991;SDS011;9121;50.926;5.340;2023-04-15T02:47:27;11.80;;;4.60;;
17991;SDS011;9121;50.926;5.340;2023-04-15T02:49:55;9.10;;;4.50;;
17991;SDS011;9121;50.926;5.340;2023-04-15T02:52:24;8.27;;;4.43;;
17991;SDS011;9121;50.926;5.340;2023-04-15T02:54:51;14.90;;;4.90;;
17991;SDS011;9121;50.926;5.340;2023-04-15T02:57:21;10.77;;;4.63;;
17991;SDS011;9121;50.926;5.340;2023-04-15T02:59:48;12.67;;;4.63;;
17991;SDS011;9121;50.926;5.340;2023-04-15T03:02:15;9.03;;;4.60;;
17991;SDS011;9121;50.926;5.340;2023-04-15T03:04:42;12.67;;;4.10;;
17991;SDS011;9121;50.926;5.340;2023-04-15T03:07:10;9.87;;;4.47;;
17991;SDS011;9121;50.926;5.340;2023-04-15T03:09:37;22.43;;;4.70;;
17991;SDS011;9121;50.926;5.340;2023-04-15T03:12:05;10.87;;;3.97;;
17991;SDS011;9121;50.926;5.340;2023-04-15T03:14:32;10.80;;;4.17;;
17991;SDS011;9121;50.926;5.340;2023-04-15T03:16:59;9.90;;;4.47;;
17991;SDS011;9121;50.926;5.340;2023-04-15T03:19:26;8.67;;;4.23;;
17991;SDS011;9121;50.926;5.340;2023-04-15T03:21:53;10.33;;;4.17;;
17991;SDS011;9121;50.926;5.340;2023-04-15T03:24:21;10.23;;;4.13;;
17991;SDS011;9121;50.926;5.340;2023-04-15T03:26:48;8.83;;;3.87;;
17991;SDS011;9121;50.926;5.340;2023-04-15T03:29:15;11.90;;;3.80;;
17991;SDS011;9121;50.926;5.340;2023-04-15T03:31:42;7.03;;;3.50;;
17991;SDS011;9121;50.926;5.340;2023-04-15T03:34:09;10.90;;;3.83;;
17991;SDS011;9121;50.926;5.340;2023-04-15T03:36:36;10.53;;;4.03;;
17991;SDS011;9121;50.926;5.340;2023-04-15T03:39:03;11.03;;;3.73;;
17991;SDS011;9121;50.926;5.340;2023-04-15T03:41:31;10.33;;;3.70;;
17991;SDS011;9121;50.926;5.340;2023-04-15T03:43:58;9.67;;;4.00;;
17991;SDS011;9121;50.926;5.340;2023-04-15T03:46:25;9.47;;;3.57;;
17991;SDS011;9121;50.926;5.340;2023-04-15T03:48:52;8.57;;;3.53;;
17991;SDS011;9121;50.926;5.340;2023-04-15T03:51:19;7.63;;;3.17;;
17991;SDS011;9121;50.926;5.340;2023-04-15T03:53:46;7.50;;;3.33;;
17991;SDS011;9121;50.926;5.340;2023-04-15T03:56:13;5.43;;;3.10;;
17991;SDS011;9121;50.926;5.340;2023-04-15T03:58:41;8.10;;;3.90;;
17991;SDS011;9121;50.926;5.340;2023-04-15T04:01:08;7.37;;;3.80;;
17991;SDS011;9121;50.926;5.340;2023-04-15T04:03:35;6.87;;;3.60;;
17991;SDS011;9121;50.926;5.340;2023-04-15T04:06:02;9.23;;;3.63;;
17991;SDS011;9121;50.926;5.340;2023-04-15T04:08:30;7.23;;;3.90;;
17991;SDS011;9121;50.926;5.340;2023-04-15T04:10:57;8.30;;;3.40;;
17991;SDS011;9121;50.926;5.340;2023-04-15T04:13:24;20.43;;;4.43;;
17991;SDS011;9121;50.926;5.340;2023-04-15T04:15:52;10.87;;;4.10;;
17991;SDS011;9121;50.926;5.340;2023-04-15T04:18:19;11.57;;;3.70;;
17991;SDS011;9121;50.926;5.340;2023-04-15T04:20:46;9.50;;;3.90;;
17991;SDS011;9121;50.926;5.340;2023-04-15T04:23:13;13.37;;;4.37;;
17991;SDS011;9121;50.926;5.340;2023-04-15T04:25:40;8.50;;;3.70;;
17991;SDS011;9121;50.926;5.340;2023-04-15T04:28:07;11.53;;;3.77;;
17991;SDS011;9121;50.926;5.340;2023-04-15T04:30:35;9.20;;;4.27;;
17991;SDS011;9121;50.926;5.340;2023-04-15T04:33:04;14.23;;;4.17;;
17991;SDS011;9121;50.926;5.340;2023-04-15T04:35:31;12.33;;;3.90;;
17991;SDS011;9121;50.926;5.340;2023-04-15T04:38:01;12.43;;;4.73;;
17991;SDS011;9121;50.926;5.340;2023-04-15T04:40:28;8.33;;;3.57;;
17991;SDS011;9121;50.926;5.340;2023-04-15T04:42:55;9.10;;;4.10;;
17991;SDS011;9121;50.926;5.340;2023-04-15T04:45:22;9.07;;;4.13;;
17991;SDS011;9121;50.926;5.340;2023-04-15T04:47:49;11.63;;;3.90;;
17991;SDS011;9121;50.926;5.340;2023-04-15T04:50:17;11.27;;;4.17;;
17991;SDS011;9121;50.926;5.340;2023-04-15T04:52:44;11.57;;;4.50;;
17991;SDS011;9121;50.926;5.340;2023-04-15T04:55:11;12.03;;;3.53;;
17991;SDS011;9121;50.926;5.340;2023-04-15T04:57:38;8.07;;;3.80;;
17991;SDS011;9121;50.926;5.340;2023-04-15T05:00:05;6.70;;;3.77;;
17991;SDS011;9121;50.926;5.340;2023-04-15T05:02:33;9.23;;;3.93;;
17991;SDS011;9121;50.926;5.340;2023-04-15T05:05:01;12.07;;;3.87;;
17991;SDS011;9121;50.926;5.340;2023-04-15T05:07:29;17.80;;;4.23;;
17991;SDS011;9121;50.926;5.340;2023-04-15T05:09:56;13.87;;;4.17;;
17991;SDS011;9121;50.926;5.340;2023-04-15T05:12:23;8.87;;;4.00;;
17991;SDS011;9121;50.926;5.340;2023-04-15T05:14:50;16.47;;;4.70;;
17991;SDS011;9121;50.926;5.340;2023-04-15T05:17:17;14.40;;;3.97;;
17991;SDS011;9121;50.926;5.340;2023-04-15T05:19:44;8.37;;;3.90;;
17991;SDS011;9121;50.926;5.340;2023-04-15T05:22:11;13.33;;;3.93;;
17991;SDS011;9121;50.926;5.340;2023-04-15T05:24:39;13.63;;;4.50;;
17991;SDS011;9121;50.926;5.340;2023-04-15T05:27:06;15.10;;;3.93;;
17991;SDS011;9121;50.926;5.340;2023-04-15T05:29:35;10.10;;;4.50;;
17991;SDS011;9121;50.926;5.340;2023-04-15T05:32:02;11.30;;;4.50;;
17991;SDS011;9121;50.926;5.340;2023-04-15T05:34:29;9.37;;;3.90;;
17991;SDS011;9121;50.926;5.340;2023-04-15T05:36:56;9.67;;;3.97;;
17991;SDS011;9121;50.926;5.340;2023-04-15T05:39:23;8.93;;;4.80;;
17991;SDS011;9121;50.926;5.340;2023-04-15T05:41:52;11.57;;;3.60;;
17991;SDS011;9121;50.926;5.340;2023-04-15T05:44:19;10.57;;;4.33;;
17991;SDS011;9121;50.926;5.340;2023-04-15T05:46:46;13.17;;;4.50;;
17991;SDS011;9121;50.926;5.340;2023-04-15T05:49:13;16.83;;;5.00;;
17991;SDS011;9121;50.926;5.340;2023-04-15T05:51:40;13.20;;;4.70;;
17991;SDS011;9121;50.926;5.340;2023-04-15T05:54:07;14.90;;;4.60;;
17991;SDS011;9121;50.926;5.340;2023-04-15T05:56:34;18.20;;;5.00;;
17991;SDS011;9121;50.926;5.340;2023-04-15T05:59:02;12.70;;;4.27;;
17991;SDS011;9121;50.926;5.340;2023-04-15T06:01:29;16.10;;;4.70;;
17991;SDS011;9121;50.926;5.340;2023-04-15T06:03:56;18.03;;;4.87;;
17991;SDS011;9121;50.926;5.340;2023-04-15T06:06:23;11.73;;;5.00;;
17991;SDS011;9121;50.926;5.340;2023-04-15T06:08:51;10.33;;;4.83;;
17991;SDS011;9121;50.926;5.340;2023-04-15T06:11:19;14.43;;;5.00;;
17991;SDS011;9121;50.926;5.340;2023-04-15T06:13:47;20.73;;;4.83;;
17991;SDS011;9121;50.926;5.340;2023-04-15T06:16:15;11.00;;;5.10;;
17991;SDS011;9121;50.926;5.340;2023-04-15T06:18:42;13.87;;;4.80;;
17991;SDS011;9121;50.926;5.340;2023-04-15T06:21:09;13.43;;;5.10;;
17991;SDS011;9121;50.926;5.340;2023-04-15T06:23:36;18.57;;;5.10;;
17991;SDS011;9121;50.926;5.340;2023-04-15T06:26:05;15.33;;;5.37;;
17991;SDS011;9121;50.926;5.340;2023-04-15T06:28:32;15.27;;;5.43;;
17991;SDS011;9121;50.926;5.340;2023-04-15T06:30:59;13.63;;;5.40;;
17991;SDS011;9121;50.926;5.340;2023-04-15T06:33:28;16.67;;;5.80;;
17991;SDS011;9121;50.926;5.340;2023-04-15T06:35:55;19.83;;;5.70;;
17991;SDS011;9121;50.926;5.340;2023-04-15T06:38:22;22.33;;;6.97;;
17991;SDS011;9121;50.926;5.340;2023-04-15T06:40:49;12.90;;;5.30;;
17991;SDS011;9121;50.926;5.340;2023-04-15T06:43:16;15.47;;;5.73;;
17991;SDS011;9121;50.926;5.340;2023-04-15T06:45:42;14.60;;;6.17;;
17991;SDS011;9121;50.926;5.340;2023-04-15T06:48:10;15.80;;;5.93;;
17991;SDS011;9121;50.926;5.340;2023-04-15T06:50:38;13.60;;;6.00;;
17991;SDS011;9121;50.926;5.340;2023-04-15T06:53:05;15.27;;;6.03;;
17991;SDS011;9121;50.926;5.340;2023-04-15T06:55:32;15.83;;;6.00;;
17991;SDS011;9121;50.926;5.340;2023-04-15T06:57:59;15.10;;;5.57;;
17991;SDS011;9121;50.926;5.340;2023-04-15T07:00:26;20.57;;;6.03;;
17991;SDS011;9121;50.926;5.340;2023-04-15T07:02:53;14.13;;;5.83;;
17991;SDS011;9121;50.926;5.340;2023-04-15T07:05:20;15.90;;;5.90;;
17991;SDS011;9121;50.926;5.340;2023-04-15T07:07:49;12.87;;;5.83;;
17991;SDS011;9121;50.926;5.340;2023-04-15T07:10:17;14.93;;;6.60;;
17991;SDS011;9121;50.926;5.340;2023-04-15T07:12:44;15.37;;;6.37;;
17991;SDS011;9121;50.926;5.340;2023-04-15T07:15:11;13.27;;;6.17;;
17991;SDS011;9121;50.926;5.340;2023-04-15T07:17:38;15.37;;;6.67;;
17991;SDS011;9121;50.926;5.340;2023-04-15T07:20:06;16.13;;;5.90;;
17991;SDS011;9121;50.926;5.340;2023-04-15T07:22:33;15.80;;;6.63;;
17991;SDS011;9121;50.926;5.340;2023-04-15T07:25:02;13.73;;;6.70;;
17991;SDS011;9121;50.926;5.340;2023-04-15T07:27:29;12.37;;;6.73;;
17991;SDS011;9121;50.926;5.340;2023-04-15T07:29:56;16.73;;;6.67;;
17991;SDS011;9121;50.926;5.340;2023-04-15T07:32:23;15.93;;;6.40;;
17991;SDS011;9121;50.926;5.340;2023-04-15T07:34:50;14.93;;;6.83;;
17991;SDS011;9121;50.926;5.340;2023-04-15T07:37:17;17.83;;;6.17;;
17991;SDS011;9121;50.926;5.340;2023-04-15T07:39:44;14.13;;;5.90;;
17991;SDS011;9121;50.926;5.340;2023-04-15T07:42:12;10.13;;;6.30;;
17991;SDS011;9121;50.926;5.340;2023-04-15T07:44:39;10.47;;;5.50;;
17991;SDS011;9121;50.926;5.340;2023-04-15T07:47:06;9.70;;;5.50;;
17991;SDS011;9121;50.926;5.340;2023-04-15T07:49:33;16.53;;;5.67;;
17991;SDS011;9121;50.926;5.340;2023-04-15T07:52:00;14.83;;;5.67;;
17991;SDS011;9121;50.926;5.340;2023-04-15T07:54:27;9.13;;;5.70;;
17991;SDS011;9121;50.926;5.340;2023-04-15T07:56:54;18.33;;;6.17;;
17991;SDS011;9121;50.926;5.340;2023-04-15T07:59:23;13.27;;;5.80;;
17991;SDS011;9121;50.926;5.340;2023-04-15T08:01:51;11.73;;;6.27;;
17991;SDS011;9121;50.926;5.340;2023-04-15T08:04:18;15.17;;;6.40;;
17991;SDS011;9121;50.926;5.340;2023-04-15T08:06:45;12.50;;;6.20;;
17991;SDS011;9121;50.926;5.340;2023-04-15T08:09:14;14.50;;;6.07;;
17991;SDS011;9121;50.926;5.340;2023-04-15T08:11:41;15.13;;;5.87;;
17991;SDS011;9121;50.926;5.340;2023-04-15T08:14:08;15.10;;;6.13;;
17991;SDS011;9121;50.926;5.340;2023-04-15T08:16:36;14.40;;;7.20;;
17991;SDS011;9121;50.926;5.340;2023-04-15T08:19:03;17.53;;;7.23;;
17991;SDS011;9121;50.926;5.340;2023-04-15T08:21:30;13.67;;;7.37;;
17991;SDS011;9121;50.926;5.340;2023-04-15T08:23:57;12.77;;;8.60;;
17991;SDS011;9121;50.926;5.340;2023-04-15T08:26:24;17.80;;;9.17;;
17991;SDS011;9121;50.926;5.340;2023-04-15T08:28:51;15.63;;;9.02;;
17991;SDS011;9121;50.926;5.340;2023-04-15T08:31:18;15.30;;;8.80;;
17991;SDS011;9121;50.926;5.340;2023-04-15T08:33:47;13.65;;;8.98;;
17991;SDS011;9121;50.926;5.340;2023-04-15T08:36:16;16.50;;;9.07;;
17991;SDS011;9121;50.926;5.340;2023-04-15T08:38:43;19.37;;;9.37;;
17991;SDS011;9121;50.926;5.340;2023-04-15T08:41:11;11.68;;;7.80;;
17991;SDS011;9121;50.926;5.340;2023-04-15T08:43:48;13.15;;;7.60;;
17991;SDS011;9121;50.926;5.340;2023-04-15T08:46:19;15.98;;;7.93;;
17991;SDS011;9121;50.926;5.340;2023-04-15T08:48:48;13.90;;;7.88;;
17991;SDS011;9121;50.926;5.340;2023-04-15T08:51:16;16.38;;;8.20;;
17991;SDS011;9121;50.926;5.340;2023-04-15T08:53:44;11.90;;;8.40;;
17991;SDS011;9121;50.926;5.340;2023-04-15T08:56:12;13.38;;;8.30;;
17991;SDS011;9121;50.926;5.340;2023-04-15T08:58:40;13.20;;;7.53;;
17991;SDS011;9121;50.926;5.340;2023-04-15T09:01:08;12.98;;;7.93;;
17991;SDS011;9121;50.926;5.340;2023-04-15T09:03:37;14.45;;;7.72;;
17991;SDS011;9121;50.926;5.340;2023-04-15T09:06:06;12.52;;;7.78;;
17991;SDS011;9121;50.926;5.340;2023-04-15T09:08:33;13.38;;;7.80;;
17991;SDS011;9121;50.926;5.340;2023-04-15T09:11:00;11.65;;;7.47;;
17991;SDS011;9121;50.926;5.340;2023-04-15T09:13:27;13.63;;;7.18;;
17991;SDS011;9121;50.926;5.340;2023-04-15T09:15:54;11.27;;;7.05;;
17991;SDS011;9121;50.926;5.340;2023-04-15T09:18:28;10.98;;;6.70;;
17991;SDS011;9121;50.926;5.340;2023-04-15T09:21:02;12.02;;;7.38;;
17991;SDS011;9121;50.926;5.340;2023-04-15T09:23:31;10.98;;;7.03;;
17991;SDS011;9121;50.926;5.340;2023-04-15T09:25:59;9.43;;;6.72;;
17991;SDS011;9121;50.926;5.340;2023-04-15T09:28:27;10.73;;;6.60;;
17991;SDS011;9121;50.926;5.340;2023-04-15T09:30:54;17.15;;;6.80;;
17991;SDS011;9121;50.926;5.340;2023-04-15T09:33:22;10.93;;;6.82;;
17991;SDS011;9121;50.926;5.340;2023-04-15T09:35:58;14.40;;;6.82;;
17991;SDS011;9121;50.926;5.340;2023-04-15T09:38:26;12.25;;;6.28;;
17991;SDS011;9121;50.926;5.340;2023-04-15T09:40:54;13.20;;;6.38;;
17991;SDS011;9121;50.926;5.340;2023-04-15T09:43:22;10.15;;;5.88;;
17991;SDS011;9121;50.926;5.340;2023-04-15T09:46:02;14.75;;;6.25;;
17991;SDS011;9121;50.926;5.340;2023-04-15T09:48:29;12.43;;;6.93;;
17991;SDS011;9121;50.926;5.340;2023-04-15T09:50:56;11.02;;;6.18;;
17991;SDS011;9121;50.926;5.340;2023-04-15T09:53:24;9.55;;;6.20;;
17991;SDS011;9121;50.926;5.340;2023-04-15T09:55:53;10.10;;;5.15;;
17991;SDS011;9121;50.926;5.340;2023-04-15T09:58:23;12.57;;;6.07;;
17991;SDS011;9121;50.926;5.340;2023-04-15T10:00:52;10.90;;;6.07;;
17991;SDS011;9121;50.926;5.340;2023-04-15T10:03:21;10.23;;;5.82;;
17991;SDS011;9121;50.926;5.340;2023-04-15T10:05:49;11.27;;;5.63;;
17991;SDS011;9121;50.926;5.340;2023-04-15T10:08:17;9.88;;;5.75;;
17991;SDS011;9121;50.926;5.340;2023-04-15T10:10:45;9.30;;;4.93;;
17991;SDS011;9121;50.926;5.340;2023-04-15T10:13:16;8.45;;;4.10;;
17991;SDS011;9121;50.926;5.340;2023-04-15T10:15:44;6.20;;;4.03;;
17991;SDS011;9121;50.926;5.340;2023-04-15T10:18:15;5.45;;;3.28;;
17991;SDS011;9121;50.926;5.340;2023-04-15T10:20:46;5.28;;;3.47;;
17991;SDS011;9121;50.926;5.340;2023-04-15T10:23:14;8.77;;;4.40;;
17991;SDS011;9121;50.926;5.340;2023-04-15T10:25:42;14.50;;;4.53;;
17991;SDS011;9121;50.926;5.340;2023-04-15T10:28:11;5.97;;;3.55;;
17991;SDS011;9121;50.926;5.340;2023-04-15T10:30:39;5.20;;;2.30;;
17991;SDS011;9121;50.926;5.340;2023-04-15T10:33:08;3.70;;;2.58;;
17991;SDS011;9121;50.926;5.340;2023-04-15T10:35:36;4.70;;;2.40;;
17991;SDS011;9121;50.926;5.340;2023-04-15T10:41:11;6.03;;;3.60;;
17991;SDS011;9121;50.926;5.340;2023-04-15T10:43:47;6.30;;;3.15;;
17991;SDS011;9121;50.926;5.340;2023-04-15T10:46:21;9.73;;;3.65;;
17991;SDS011;9121;50.926;5.340;2023-04-15T10:48:49;5.10;;;2.70;;
17991;SDS011;9121;50.926;5.340;2023-04-15T10:51:27;8.18;;;3.75;;
17991;SDS011;9121;50.926;5.340;2023-04-15T10:53:56;5.63;;;3.53;;
17991;SDS011;9121;50.926;5.340;2023-04-15T10:56:24;11.48;;;4.32;;
17991;SDS011;9121;50.926;5.340;2023-04-15T10:58:51;7.18;;;3.72;;
17991;SDS011;9121;50.926;5.340;2023-04-15T11:01:18;5.75;;;3.58;;
17991;SDS011;9121;50.926;5.340;2023-04-15T11:03:47;11.32;;;4.32;;
17991;SDS011;9121;50.926;5.340;2023-04-15T11:06:15;11.73;;;4.82;;
17991;SDS011;9121;50.926;5.340;2023-04-15T11:08:55;9.57;;;4.72;;
17991;SDS011;9121;50.926;5.340;2023-04-15T11:14:24;15.38;;;4.70;;
17991;SDS011;9121;50.926;5.340;2023-04-15T11:16:52;6.32;;;3.88;;
17991;SDS011;9121;50.926;5.340;2023-04-15T11:19:20;8.77;;;3.80;;
17991;SDS011;9121;50.926;5.340;2023-04-15T11:21:46;9.02;;;4.25;;
17991;SDS011;9121;50.926;5.340;2023-04-15T11:24:22;6.32;;;3.78;;
17991;SDS011;9121;50.926;5.340;2023-04-15T11:26:55;6.22;;;3.60;;
17991;SDS011;9121;50.926;5.340;2023-04-15T11:29:27;7.20;;;3.75;;
17991;SDS011;9121;50.926;5.340;2023-04-15T11:32:02;10.10;;;3.58;;
17991;SDS011;9121;50.926;5.340;2023-04-15T11:34:31;6.30;;;4.05;;
17991;SDS011;9121;50.926;5.340;2023-04-15T11:36:59;7.40;;;3.63;;
17991;SDS011;9121;50.926;5.340;2023-04-15T11:39:29;5.20;;;2.60;;
17991;SDS011;9121;50.926;5.340;2023-04-15T11:41:56;5.00;;;2.60;;
17991;SDS011;9121;50.926;5.340;2023-04-15T11:44:24;4.70;;;2.80;;
17991;SDS011;9121;50.926;5.340;2023-04-15T11:46:51;6.60;;;3.03;;
17991;SDS011;9121;50.926;5.340;2023-04-15T11:49:28;3.25;;;2.40;;
17991;SDS011;9121;50.926;5.340;2023-04-15T11:51:58;10.77;;;2.72;;
17991;SDS011;9121;50.926;5.340;2023-04-15T11:54:25;5.03;;;2.92;;
17991;SDS011;9121;50.926;5.340;2023-04-15T11:56:52;7.93;;;2.63;;
17991;SDS011;9121;50.926;5.340;2023-04-15T11:59:20;5.28;;;1.70;;
17991;SDS011;9121;50.926;5.340;2023-04-15T12:01:47;4.70;;;1.70;;
17991;SDS011;9121;50.926;5.340;2023-04-15T12:04:16;2.45;;;1.70;;
17991;SDS011;9121;50.926;5.340;2023-04-15T12:06:47;2.97;;;2.20;;
17991;SDS011;9121;50.926;5.340;2023-04-15T12:09:14;3.55;;;2.15;;
17991;SDS011;9121;50.926;5.340;2023-04-15T12:11:42;5.40;;;2.33;;
17991;SDS011;9121;50.926;5.340;2023-04-15T12:14:12;3.03;;;2.30;;
17991;SDS011;9121;50.926;5.340;2023-04-15T12:16:43;3.53;;;2.10;;
17991;SDS011;9121;50.926;5.340;2023-04-15T12:19:13;4.93;;;1.50;;
17991;SDS011;9121;50.926;5.340;2023-04-15T12:21:44;4.18;;;1.70;;
17991;SDS011;9121;50.926;5.340;2023-04-15T12:24:13;2.33;;;1.95;;
17991;SDS011;9121;50.926;5.340;2023-04-15T12:26:44;3.95;;;2.20;;
17991;SDS011;9121;50.926;5.340;2023-04-15T12:29:13;8.80;;;2.58;;
17991;SDS011;9121;50.926;5.340;2023-04-15T12:31:48;4.40;;;2.72;;
17991;SDS011;9121;50.926;5.340;2023-04-15T12:34:17;4.15;;;2.70;;
17991;SDS011;9121;50.926;5.340;2023-04-15T12:36:50;2.53;;;2.30;;
17991;SDS011;9121;50.926;5.340;2023-04-15T12:39:21;6.90;;;2.40;;
17991;SDS011;9121;50.926;5.340;2023-04-15T12:41:49;6.40;;;2.38;;
17991;SDS011;9121;50.926;5.340;2023-04-15T12:44:16;5.60;;;1.70;;
17991;SDS011;9121;50.926;5.340;2023-04-15T12:46:44;2.97;;;2.00;;
17991;SDS011;9121;50.926;5.340;2023-04-15T12:49:11;3.40;;;1.70;;
17991;SDS011;9121;50.926;5.340;2023-04-15T12:51:40;3.67;;;1.70;;
17991;SDS011;9121;50.926;5.340;2023-04-15T12:54:07;2.45;;;1.70;;
17991;SDS011;9121;50.926;5.340;2023-04-15T12:56:35;2.42;;;1.90;;
17991;SDS011;9121;50.926;5.340;2023-04-15T12:59:02;1.92;;;1.70;;
17991;SDS011;9121;50.926;5.340;2023-04-15T13:01:29;2.67;;;1.90;;
17991;SDS011;9121;50.926;5.340;2023-04-15T13:03:56;2.70;;;1.80;;
17991;SDS011;9121;50.926;5.340;2023-04-15T13:06:23;5.15;;;2.10;;
17991;SDS011;9121;50.926;5.340;2023-04-15T13:08:50;2.33;;;1.75;;
17991;SDS011;9121;50.926;5.340;2023-04-15T13:11:19;5.03;;;1.90;;
17991;SDS011;9121;50.926;5.340;2023-04-15T13:13:47;2.30;;;2.00;;
17991;SDS011;9121;50.926;5.340;2023-04-15T13:16:14;4.43;;;1.80;;
17991;SDS011;9121;50.926;5.340;2023-04-15T13:18:41;3.97;;;2.22;;
17991;SDS011;9121;50.926;5.340;2023-04-15T13:21:09;5.15;;;1.98;;
17991;SDS011;9121;50.926;5.340;2023-04-15T13:23:37;4.78;;;2.00;;
17991;SDS011;9121;50.926;5.340;2023-04-15T13:26:04;4.25;;;1.85;;
17991;SDS011;9121;50.926;5.340;2023-04-15T13:28:31;6.38;;;2.08;;
17991;SDS011;9121;50.926;5.340;2023-04-15T13:30:59;3.03;;;1.98;;
17991;SDS011;9121;50.926;5.340;2023-04-15T13:33:26;2.92;;;2.00;;
17991;SDS011;9121;50.926;5.340;2023-04-15T13:35:53;4.43;;;2.10;;
17991;SDS011;9121;50.926;5.340;2023-04-15T13:38:20;6.18;;;2.05;;
17991;SDS011;9121;50.926;5.340;2023-04-15T13:40:48;2.25;;;1.70;;
17991;SDS011;9121;50.926;5.340;2023-04-15T13:43:15;3.10;;;2.00;;
17991;SDS011;9121;50.926;5.340;2023-04-15T13:45:42;3.40;;;2.13;;
17991;SDS011;9121;50.926;5.340;2023-04-15T13:48:10;3.17;;;1.92;;
17991;SDS011;9121;50.926;5.340;2023-04-15T13:50:37;5.10;;;2.15;;
17991;SDS011;9121;50.926;5.340;2023-04-15T13:53:05;3.88;;;2.05;;
17991;SDS011;9121;50.926;5.340;2023-04-15T13:55:32;5.30;;;2.45;;
17991;SDS011;9121;50.926;5.340;2023-04-15T13:57:59;3.22;;;2.42;;
17991;SDS011;9121;50.926;5.340;2023-04-15T14:00:26;2.45;;;1.90;;
17991;SDS011;9121;50.926;5.340;2023-04-15T14:02:53;4.22;;;2.10;;
17991;SDS011;9121;50.926;5.340;2023-04-15T14:05:21;3.00;;;1.83;;
17991;SDS011;9121;50.926;5.340;2023-04-15T14:07:48;8.18;;;2.55;;
17991;SDS011;9121;50.926;5.340;2023-04-15T14:10:15;3.15;;;1.85;;
17991;SDS011;9121;50.926;5.340;2023-04-15T14:12:42;3.28;;;1.70;;
17991;SDS011;9121;50.926;5.340;2023-04-15T14:15:09;5.60;;;2.10;;
17991;SDS011;9121;50.926;5.340;2023-04-15T14:17:36;21.38;;;4.00;;
17991;SDS011;9121;50.926;5.340;2023-04-15T14:20:05;2.90;;;2.28;;
17991;SDS011;9121;50.926;5.340;2023-04-15T14:22:34;9.48;;;2.38;;
17991;SDS011;9121;50.926;5.340;2023-04-15T14:25:01;2.60;;;2.00;;
17991;SDS011;9121;50.926;5.340;2023-04-15T14:27:29;2.88;;;1.90;;
17991;SDS011;9121;50.926;5.340;2023-04-15T14:29:56;2.25;;;1.70;;
17991;SDS011;9121;50.926;5.340;2023-04-15T14:32:23;2.15;;;1.95;;
17991;SDS011;9121;50.926;5.340;2023-04-15T14:34:50;3.10;;;2.00;;
17991;SDS011;9121;50.926;5.340;2023-04-15T14:37:17;7.35;;;2.15;;
17991;SDS011;9121;50.926;5.340;2023-04-15T14:39:46;2.28;;;1.88;;
17991;SDS011;9121;50.926;5.340;2023-04-15T14:42:12;5.05;;;2.13;;
17991;SDS011;9121;50.926;5.340;2023-04-15T14:44:39;2.80;;;1.67;;
17991;SDS011;9121;50.926;5.340;2023-04-15T14:47:08;2.72;;;2.10;;
17991;SDS011;9121;50.926;5.340;2023-04-15T14:49:35;5.35;;;1.98;;
17991;SDS011;9121;50.926;5.340;2023-04-15T14:52:02;8.93;;;2.30;;
17991;SDS011;9121;50.926;5.340;2023-04-15T14:54:29;4.13;;;2.65;;
17991;SDS011;9121;50.926;5.340;2023-04-15T14:56:57;11.60;;;2.65;;
17991;SDS011;9121;50.926;5.340;2023-04-15T14:59:25;5.78;;;2.10;;
17991;SDS011;9121;50.926;5.340;2023-04-15T15:01:52;2.67;;;2.00;;
17991;SDS011;9121;50.926;5.340;2023-04-15T15:04:19;4.95;;;2.60;;